Time;durP1;ratioP1;P1;durP2;ratioP2;P2;SDS_P1;SDS_P2;PMS_P1;PMS_P2;Temp;Humidity;BMP_temperature;BMP_pressure;BME280_temperature;BME280_humidity;BME280_pressure;Samples;Min_cycle;Max_cycle;Signal;HPM_P1;HPM_P2
2021/08/16 00:00:20;;;;;;;0.60;0.60;;;15.40;99.90;;;;;;6338791;22;20886;-95
2021/08/16 00:02:47;;;;;;;0.90;0.40;;;15.20;99.90;;;;;;6338419;22;20387;-94
2021/08/16 00:05:19;;;;;;;0.30;0.30;;;15.10;99.90;;;;;;6338536;22;20377;-95
2021/08/16 00:07:46;;;;;;;0.40;0.40;;;15.10;99.90;;;;;;6338617;22;20384;-95
2021/08/16 00:10:15;;;;;;;0.15;0.15;;;15.00;99.90;;;;;;6339500;22;20466;-95
2021/08/16 00:12:43;;;;;;;0.30;0.30;;;14.90;99.90;;;;;;6338614;22;20377;-95
2021/08/16 00:15:10;;;;;;;0.10;0.10;;;15.00;99.90;;;;;;6338531;22;20396;-95
2021/08/16 00:17:38;;;;;;;0.10;0.10;;;15.00;99.90;;;;;;6338871;22;20393;-93
2021/08/16 00:20:06;;;;;;;0.13;0.13;;;14.90;99.90;;;;;;6338755;22;20385;-96
2021/08/16 00:22:35;;;;;;;7.30;0.90;;;14.90;99.90;;;;;;6339818;22;20388;-93
2021/08/16 00:25:03;;;;;;;0.50;0.50;;;14.80;99.90;;;;;;6338240;22;20381;-95
2021/08/16 00:27:31;;;;;;;0.70;0.70;;;14.90;99.90;;;;;;6338047;22;20385;-95
2021/08/16 00:29:58;;;;;;;0.10;0.10;;;15.00;99.90;;;;;;6338398;22;20380;-93
2021/08/16 00:32:25;;;;;;;0.20;0.20;;;15.20;99.90;;;;;;6339229;22;20468;-94
2021/08/16 00:34:52;;;;;;;1.50;0.60;;;15.40;99.90;;;;;;6338589;22;20393;-94
2021/08/16 00:37:22;;;;;;;0.13;0.13;;;15.60;99.90;;;;;;6338240;22;20377;-96
2021/08/16 00:39:49;;;;;;;3.10;1.60;;;15.70;99.90;;;;;;6338769;22;20448;-95
2021/08/16 00:42:17;;;;;;;0.10;0.10;;;15.70;99.90;;;;;;6338530;22;20467;-95
2021/08/16 00:44:44;;;;;;;1.10;0.90;;;15.60;99.90;;;;;;6337924;22;20384;-95
2021/08/16 00:47:12;;;;;;;0.20;0.20;;;15.40;99.90;;;;;;6338581;22;20471;-95
2021/08/16 00:49:39;;;;;;;1.77;1.10;;;15.40;99.90;;;;;;6346469;22;20389;-94
2021/08/16 00:52:07;;;;;;;0.20;0.20;;;15.30;99.90;;;;;;6359686;22;20461;-95
2021/08/16 00:54:34;;;;;;;0.80;0.30;;;15.50;99.90;;;;;;6340898;22;20472;-95
2021/08/16 00:57:02;;;;;;;0.30;0.30;;;15.60;99.90;;;;;;6338172;22;20380;-94
2021/08/16 00:59:30;;;;;;;0.30;0.30;;;15.60;99.90;;;;;;6337778;22;20463;-96
2021/08/16 01:01:57;;;;;;;0.20;0.20;;;15.50;99.90;;;;;;6339445;22;20395;-95
2021/08/16 01:04:27;;;;;;;2.20;0.50;;;15.30;99.90;;;;;;6337947;22;20377;-95
2021/08/16 01:06:54;;;;;;;0.20;0.20;;;15.20;99.90;;;;;;6339280;22;20722;-96
2021/08/16 01:09:21;;;;;;;0.10;0.10;;;15.10;99.90;;;;;;6338117;22;20377;-95
2021/08/16 01:11:50;;;;;;;2.80;0.60;;;15.00;99.90;;;;;;6338186;22;20401;-96
2021/08/16 01:14:18;;;;;;;0.50;0.50;;;15.00;99.90;;;;;;6337701;22;20387;-95
2021/08/16 01:16:47;;;;;;;0.20;0.20;;;15.10;99.90;;;;;;6338214;22;20381;-94
2021/08/16 01:19:18;;;;;;;0.43;0.43;;;15.20;99.90;;;;;;6338384;22;20468;-95
2021/08/16 01:21:45;;;;;;;0.98;0.47;;;15.20;99.90;;;;;;6338767;22;20459;-95
2021/08/16 01:24:14;;;;;;;0.50;0.50;;;15.20;99.90;;;;;;6338717;22;20412;-95
2021/08/16 01:26:41;;;;;;;0.10;0.10;;;15.10;99.90;;;;;;6337946;22;20381;-94
2021/08/16 01:29:19;;;;;;;0.50;0.50;;;15.30;99.90;;;;;;6337348;22;20865;-96
2021/08/16 01:31:56;;;;;;;0.25;0.25;;;15.60;99.90;;;;;;6337619;22;20388;-96
2021/08/16 01:34:23;;;;;;;0.10;0.10;;;15.60;99.90;;;;;;6338139;22;20399;-95
2021/08/16 01:36:50;;;;;;;4.30;0.50;;;15.60;99.90;;;;;;6338203;22;20376;-95
2021/08/16 01:39:18;;;;;;;0.20;0.20;;;15.70;99.90;;;;;;6338008;22;20472;-94
2021/08/16 01:41:47;;;;;;;0.10;0.10;;;15.70;99.90;;;;;;6337850;22;20376;-95
2021/08/16 01:44:16;;;;;;;0.60;0.50;;;15.70;99.90;;;;;;6337477;22;20442;-96
2021/08/16 01:46:44;;;;;;;0.30;0.30;;;15.80;99.90;;;;;;6337627;22;20377;-95
2021/08/16 01:49:12;;;;;;;0.65;0.43;;;15.70;99.90;;;;;;6337949;22;20384;-96
2021/08/16 01:51:40;;;;;;;0.20;0.20;;;15.70;99.90;;;;;;6338010;22;20472;-95
2021/08/16 01:54:09;;;;;;;0.50;0.40;;;15.70;99.90;;;;;;6338871;22;20381;-93
2021/08/16 01:56:37;;;;;;;0.40;0.40;;;15.80;99.90;;;;;;6338209;22;20381;-94
2021/08/16 01:59:05;;;;;;;0.30;0.30;;;15.90;99.90;;;;;;6337515;22;20468;-95
2021/08/16 02:01:32;;;;;;;0.30;0.30;;;15.90;99.90;;;;;;6337329;22;20475;-95
2021/08/16 02:04:00;;;;;;;0.52;0.38;;;16.00;99.90;;;;;;6337617;22;20385;-95
2021/08/16 02:06:27;;;;;;;13.20;0.50;;;16.10;99.90;;;;;;6338623;22;20841;-94
2021/08/16 02:08:55;;;;;;;0.70;0.70;;;16.30;99.90;;;;;;6338233;22;20435;-96
2021/08/16 02:11:23;;;;;;;0.50;0.40;;;16.40;99.90;;;;;;6338104;22;20890;-96
2021/08/16 02:13:51;;;;;;;2.70;1.10;;;16.50;99.90;;;;;;6337435;22;20483;-95
2021/08/16 02:16:18;;;;;;;2.28;1.17;;;16.50;99.90;;;;;;6337215;22;20393;-94
2021/08/16 02:18:46;;;;;;;0.40;0.40;;;16.50;99.90;;;;;;6337873;22;20707;-94
2021/08/16 02:21:13;;;;;;;0.17;0.17;;;16.50;99.90;;;;;;6337828;22;20464;-95
2021/08/16 02:23:40;;;;;;;2.30;1.20;;;16.60;99.90;;;;;;6337641;22;20391;-94
2021/08/16 02:26:07;;;;;;;1.00;0.60;;;16.70;99.90;;;;;;6337609;22;20389;-94
2021/08/16 02:28:34;;;;;;;0.30;0.30;;;16.70;99.90;;;;;;6337810;22;20861;-96
2021/08/16 02:31:01;;;;;;;0.65;0.65;;;16.80;99.90;;;;;;6353190;22;20431;-95
2021/08/16 02:33:29;;;;;;;0.20;0.20;;;16.70;99.90;;;;;;6357578;22;20376;-95
2021/08/16 02:35:56;;;;;;;1.00;0.53;;;16.70;99.90;;;;;;6339600;22;20399;-95
2021/08/16 02:38:23;;;;;;;0.10;0.10;;;16.60;99.90;;;;;;6338602;22;20377;-96
2021/08/16 02:40:50;;;;;;;0.30;0.30;;;16.50;99.90;;;;;;6338184;22;20484;-95
2021/08/16 02:43:18;;;;;;;8.77;1.17;;;16.50;99.90;;;;;;6337950;22;20540;-95
2021/08/16 02:45:45;;;;;;;1.10;0.80;;;16.50;99.90;;;;;;6337179;22;20384;-96
2021/08/16 02:48:12;;;;;;;1.10;0.70;;;16.40;99.90;;;;;;6337893;22;20380;-96
2021/08/16 02:50:39;;;;;;;0.70;0.40;;;16.30;99.90;;;;;;6337847;22;20381;-94
2021/08/16 02:53:06;;;;;;;0.10;0.10;;;16.40;99.90;;;;;;6338735;22;20763;-96
2021/08/16 02:55:33;;;;;;;0.30;0.30;;;16.30;99.90;;;;;;6339772;22;20399;-95
2021/08/16 02:58:00;;;;;;;0.15;0.15;;;16.40;99.90;;;;;;6337662;22;20456;-94
2021/08/16 03:00:30;;;;;;;0.40;0.40;;;16.50;99.90;;;;;;6338179;22;20381;-96
2021/08/16 03:02:57;;;;;;;0.50;0.50;;;16.60;99.90;;;;;;6338713;22;20381;-96
2021/08/16 03:05:25;;;;;;;0.10;0.10;;;16.70;99.90;;;;;;6338762;22;20915;-95
2021/08/16 03:07:52;;;;;;;0.10;0.10;;;16.70;99.90;;;;;;6338070;22;20400;-95
2021/08/16 03:10:20;;;;;;;0.30;0.30;;;16.80;99.90;;;;;;6340653;22;20398;-96
2021/08/16 03:12:47;;;;;;;0.10;0.10;;;16.80;99.90;;;;;;6339953;22;20379;-94
2021/08/16 03:15:14;;;;;;;0.32;0.32;;;16.80;99.90;;;;;;6339484;22;20399;-96
2021/08/16 03:17:42;;;;;;;1.10;0.80;;;16.80;99.90;;;;;;6341975;22;20384;-96
2021/08/16 03:20:10;;;;;;;0.73;0.35;;;16.80;99.90;;;;;;6343212;22;20384;-96
2021/08/16 03:22:37;;;;;;;0.40;0.40;;;16.80;99.90;;;;;;6342917;22;20487;-96
2021/08/16 03:25:05;;;;;;;0.25;0.25;;;16.90;99.90;;;;;;6341818;22;20376;-96
2021/08/16 03:27:36;;;;;;;1.10;0.50;;;17.00;99.90;;;;;;6345935;22;20447;-96
2021/08/16 03:30:08;;;;;;;0.40;0.40;;;17.00;99.90;;;;;;6344193;22;20436;-96
2021/08/16 03:32:35;;;;;;;0.15;0.15;;;17.10;99.90;;;;;;6345671;22;20486;-96
2021/08/16 03:35:03;;;;;;;0.50;0.35;;;17.10;99.90;;;;;;6344848;22;20395;-96
2021/08/16 03:37:35;;;;;;;1.90;0.70;;;17.10;99.90;;;;;;6346392;22;20419;-96
2021/08/16 03:40:05;;;;;;;0.10;0.10;;;17.10;99.90;;;;;;6343263;22;20473;-96
2021/08/16 03:42:34;;;;;;;0.30;0.30;;;17.10;99.90;;;;;;6346022;22;20381;-96
2021/08/16 03:45:03;;;;;;;0.32;0.32;;;17.00;99.90;;;;;;6318964;22;20408;-96
2021/08/16 03:47:30;;;;;;;1.00;0.70;;;17.10;99.90;;;;;;6342609;22;20469;-96
2021/08/16 03:49:58;;;;;;;0.10;0.10;;;17.00;99.90;;;;;;6342548;22;20373;-96
2021/08/16 03:52:25;;;;;;;0.20;0.20;;;17.10;99.90;;;;;;6341540;22;20751;-96
2021/08/16 03:54:52;;;;;;;5.10;1.20;;;17.00;99.90;;;;;;6339852;22;20468;-96
2021/08/16 03:57:19;;;;;;;0.10;0.10;;;17.10;99.90;;;;;;6340368;22;20391;-96
2021/08/16 03:59:46;;;;;;;0.60;0.50;;;17.10;99.90;;;;;;6339291;22;20387;-96
2021/08/16 04:02:13;;;;;;;0.30;0.30;;;17.00;99.90;;;;;;6339426;22;20380;-96
2021/08/16 04:04:43;;;;;;;0.10;0.10;;;17.00;99.90;;;;;;6339433;22;20392;-96
2021/08/16 04:07:11;;;;;;;0.17;0.17;;;17.00;99.90;;;;;;6339314;22;20497;-96
2021/08/16 04:09:38;;;;;;;0.20;0.20;;;16.90;99.90;;;;;;6339866;22;20467;-96
2021/08/16 04:12:06;;;;;;;0.35;0.35;;;16.80;99.90;;;;;;6363495;22;20417;-96
2021/08/16 04:14:33;;;;;;;0.40;0.40;;;17.00;99.90;;;;;;6357689;22;20467;-96
2021/08/16 04:17:01;;;;;;;0.43;0.43;;;16.90;99.90;;;;;;6340004;22;20393;-95
2021/08/16 04:19:28;;;;;;;0.30;0.30;;;17.00;99.90;;;;;;6340994;22;20405;-96
2021/08/16 04:21:55;;;;;;;0.50;0.40;;;17.00;99.90;;;;;;6340691;22;20468;-96
2021/08/16 04:24:22;;;;;;;0.82;0.73;;;17.00;99.90;;;;;;6339956;22;20390;-96
2021/08/16 04:26:49;;;;;;;0.20;0.20;;;17.00;99.90;;;;;;6339587;22;20452;-96
2021/08/16 04:29:16;;;;;;;0.30;0.30;;;17.00;99.90;;;;;;6340216;22;20464;-96
2021/08/16 04:31:43;;;;;;;0.20;0.20;;;16.90;99.90;;;;;;6338784;22;20464;-96
2021/08/16 04:34:11;;;;;;;0.50;0.50;;;17.00;99.90;;;;;;6340172;22;20470;-96
2021/08/16 04:36:39;;;;;;;0.20;0.20;;;17.00;99.90;;;;;;6342010;22;20399;-96
2021/08/16 04:39:07;;;;;;;0.20;0.20;;;16.90;99.90;;;;;;6339359;22;20464;-96
2021/08/16 04:41:34;;;;;;;0.70;0.60;;;17.00;99.90;;;;;;6339286;22;20387;-96
2021/08/16 04:44:01;;;;;;;0.10;0.10;;;16.90;99.90;;;;;;6339447;22;20377;-96
2021/08/16 04:46:28;;;;;;;1.48;0.57;;;16.90;99.90;;;;;;6340810;22;20381;-96
2021/08/16 04:48:55;;;;;;;0.22;0.20;;;16.90;99.90;;;;;;6341025;22;20397;-96
2021/08/16 04:51:22;;;;;;;6.00;0.90;;;16.90;99.90;;;;;;6341015;22;20459;-96
2021/08/16 04:53:50;;;;;;;0.10;0.10;;;16.80;99.90;;;;;;6339937;22;20388;-96
2021/08/16 04:56:17;;;;;;;5.30;1.10;;;16.90;99.90;;;;;;6339698;22;20401;-96
2021/08/16 04:58:44;;;;;;;0.20;0.20;;;17.00;99.90;;;;;;6339674;22;20706;-95
2021/08/16 05:01:11;;;;;;;21.60;0.70;;;17.20;99.90;;;;;;6341816;22;20387;-96
2021/08/16 05:03:39;;;;;;;1.60;0.90;;;17.30;99.90;;;;;;6340277;22;20377;-96
2021/08/16 05:06:07;;;;;;;1.50;0.70;;;17.40;99.90;;;;;;6341313;22;20385;-96
2021/08/16 05:08:37;;;;;;;0.22;0.22;;;17.40;99.90;;;;;;6341313;22;20849;-96
2021/08/16 05:11:05;;;;;;;0.28;0.28;;;17.30;99.90;;;;;;6340323;22;20404;-96
2021/08/16 05:13:33;;;;;;;0.80;0.80;;;17.40;99.90;;;;;;6340459;22;20377;-96
2021/08/16 05:16:01;;;;;;;0.40;0.40;;;17.40;99.90;;;;;;6338533;22;20442;-96
2021/08/16 05:18:28;;;;;;;29.90;0.90;;;17.50;99.90;;;;;;6339524;22;20444;-96
2021/08/16 05:20:57;;;;;;;0.10;0.10;;;17.50;99.90;;;;;;6339915;22;20773;-96
2021/08/16 05:23:24;;;;;;;0.40;0.40;;;17.40;99.90;;;;;;6339650;22;20480;-95
2021/08/16 05:25:51;;;;;;;0.73;0.55;;;17.40;99.90;;;;;;6338844;22;20395;-96
2021/08/16 05:28:18;;;;;;;0.20;0.20;;;17.40;99.90;;;;;;6338293;22;20408;-96
2021/08/16 05:30:45;;;;;;;0.70;0.70;;;17.40;99.90;;;;;;6339000;22;20907;-96
2021/08/16 05:33:12;;;;;;;0.40;0.40;;;17.50;99.90;;;;;;6338449;22;20438;-96
2021/08/16 05:35:39;;;;;;;0.30;0.30;;;17.60;99.90;;;;;;6338253;22;20497;-96
2021/08/16 05:38:07;;;;;;;0.43;0.43;;;17.60;99.90;;;;;;6337957;22;20390;-96
2021/08/16 05:40:34;;;;;;;0.60;0.60;;;17.70;99.90;;;;;;6338358;22;20407;-96
2021/08/16 05:43:01;;;;;;;0.77;0.38;;;17.80;99.90;;;;;;6337858;22;20456;-96
2021/08/16 05:45:28;;;;;;;0.60;0.60;;;17.90;99.90;;;;;;6338400;22;20467;-96
2021/08/16 05:47:56;;;;;;;3.00;0.80;;;17.90;99.90;;;;;;6338848;22;20473;-96
2021/08/16 05:50:24;;;;;;;1.02;0.60;;;18.00;99.90;;;;;;6337726;22;20381;-96
2021/08/16 05:52:52;;;;;;;0.30;0.30;;;17.90;99.90;;;;;;6363266;22;20377;-96
2021/08/16 05:55:19;;;;;;;0.98;0.70;;;18.00;99.90;;;;;;6356762;22;20730;-96
2021/08/16 05:57:47;;;;;;;0.30;0.30;;;18.10;99.90;;;;;;6338192;22;20404;-96
2021/08/16 06:00:19;;;;;;;2.20;0.85;;;18.10;99.90;;;;;;6338674;22;20458;-95
2021/08/16 06:02:46;;;;;;;0.90;0.80;;;18.10;99.90;;;;;;6338499;22;20463;-96
2021/08/16 06:05:13;;;;;;;1.05;0.47;;;18.20;99.90;;;;;;6339313;22;20405;-96
2021/08/16 06:07:40;;;;;;;0.80;0.60;;;18.20;99.90;;;;;;6337895;22;20384;-96
2021/08/16 06:10:09;;;;;;;1.63;0.90;;;18.20;99.90;;;;;;6340307;22;20381;-96
2021/08/16 06:12:36;;;;;;;1.00;0.65;;;18.20;99.90;;;;;;6337105;22;20413;-94
2021/08/16 06:15:03;;;;;;;3.25;1.35;;;18.10;99.90;;;;;;6337355;22;20717;-96
2021/08/16 06:17:31;;;;;;;1.60;0.63;;;18.10;99.90;;;;;;6338479;22;20508;-95
2021/08/16 06:19:58;;;;;;;0.30;0.30;;;18.20;99.90;;;;;;6337335;22;20377;-96
2021/08/16 06:22:25;;;;;;;4.00;1.00;;;18.30;99.90;;;;;;6338139;22;20471;-96
2021/08/16 06:24:52;;;;;;;0.22;0.22;;;18.20;99.90;;;;;;6342439;22;20393;-95
2021/08/16 06:27:29;;;;;;;0.27;0.27;;;18.20;99.90;;;;;;6321528;22;21683;-95
2021/08/16 06:29:58;;;;;;;0.70;0.60;;;18.30;99.90;;;;;;6347121;22;20389;-94
2021/08/16 06:32:32;;;;;;;1.00;0.90;;;18.20;99.90;;;;;;6322867;22;20379;-95
2021/08/16 06:35:00;;;;;;;0.25;0.25;;;18.30;99.90;;;;;;6342849;22;20371;-96
2021/08/16 06:37:28;;;;;;;0.40;0.40;;;18.30;99.90;;;;;;6344763;22;20445;-95
2021/08/16 06:39:55;;;;;;;0.25;0.25;;;18.30;99.90;;;;;;6345463;22;20471;-95
2021/08/16 06:42:22;;;;;;;0.70;0.70;;;18.30;99.90;;;;;;6346287;22;20378;-96
2021/08/16 06:44:49;;;;;;;1.90;0.80;;;18.40;99.90;;;;;;6343484;22;20482;-95
2021/08/16 06:47:17;;;;;;;0.38;0.38;;;18.30;99.90;;;;;;6343596;22;20768;-96
2021/08/16 06:49:44;;;;;;;1.30;0.95;;;18.30;99.90;;;;;;6343898;22;20382;-95
2021/08/16 06:52:11;;;;;;;0.40;0.40;;;18.30;99.90;;;;;;6343917;22;20383;-96
2021/08/16 06:54:38;;;;;;;0.70;0.50;;;18.30;99.90;;;;;;6344170;22;20375;-94
2021/08/16 06:57:05;;;;;;;1.30;0.68;;;18.30;99.90;;;;;;6342966;22;20495;-95
2021/08/16 06:59:34;;;;;;;7.07;1.40;;;18.30;99.90;;;;;;6342568;22;20859;-94
2021/08/16 07:02:02;;;;;;;0.68;0.22;;;18.20;99.90;;;;;;6345236;22;20428;-96
2021/08/16 07:04:30;;;;;;;0.28;0.28;;;18.20;99.90;;;;;;6344580;22;20398;-95
2021/08/16 07:06:57;;;;;;;4.82;0.85;;;18.20;99.90;;;;;;6345267;22;20383;-95
2021/08/16 07:09:24;;;;;;;1.50;0.90;;;18.20;99.90;;;;;;6344731;22;20467;-94
2021/08/16 07:11:53;;;;;;;0.50;0.50;;;18.20;99.90;;;;;;6344447;22;20409;-95
2021/08/16 07:14:20;;;;;;;0.75;0.68;;;18.30;99.90;;;;;;6344085;22;20375;-95
2021/08/16 07:16:49;;;;;;;0.60;0.53;;;18.30;99.90;;;;;;6345247;22;20391;-95
2021/08/16 07:19:17;;;;;;;6.05;1.75;;;18.30;99.90;;;;;;6344984;22;20482;-95
2021/08/16 07:21:46;;;;;;;0.20;0.20;;;18.40;99.90;;;;;;6344276;22;20456;-95
2021/08/16 07:24:15;;;;;;;0.43;0.35;;;18.50;99.90;;;;;;6345072;22;20375;-94
2021/08/16 07:26:42;;;;;;;1.83;0.90;;;18.50;99.90;;;;;;6338980;22;20456;-96
2021/08/16 07:29:09;;;;;;;2.90;0.90;;;18.70;99.90;;;;;;6339018;22;20380;-95
2021/08/16 07:31:36;;;;;;;0.73;0.70;;;18.80;99.90;;;;;;6346099;22;20392;-96
2021/08/16 07:34:04;;;;;;;0.30;0.30;;;18.80;99.90;;;;;;6362700;22;20440;-96
2021/08/16 07:36:31;;;;;;;0.38;0.38;;;18.90;99.90;;;;;;6343023;22;20401;-96
2021/08/16 07:38:58;;;;;;;0.50;0.50;;;19.10;99.90;;;;;;6339115;22;20456;-95
2021/08/16 07:41:26;;;;;;;0.47;0.47;;;19.10;99.90;;;;;;6338740;22;20381;-95
2021/08/16 07:43:53;;;;;;;4.00;1.00;;;19.10;99.90;;;;;;6338027;22;20385;-96
2021/08/16 07:46:20;;;;;;;1.10;0.50;;;19.10;99.90;;;;;;6339924;22;20377;-96
2021/08/16 07:48:47;;;;;;;2.40;1.05;;;19.10;99.90;;;;;;6313219;22;20387;-95
2021/08/16 07:51:14;;;;;;;3.22;1.48;;;19.20;99.90;;;;;;6339374;22;20387;-95
2021/08/16 07:53:43;;;;;;;0.50;0.50;;;19.30;99.90;;;;;;6338685;22;20389;-95
2021/08/16 07:56:10;;;;;;;2.22;0.52;;;19.30;99.90;;;;;;6338882;22;20385;-95
2021/08/16 07:58:38;;;;;;;1.75;1.00;;;19.40;99.90;;;;;;6338993;22;20382;-95
2021/08/16 08:01:06;;;;;;;0.20;0.20;;;19.50;99.90;;;;;;6343744;22;20853;-96
2021/08/16 08:03:34;;;;;;;3.05;1.85;;;19.60;99.90;;;;;;6339705;22;20376;-94
2021/08/16 08:06:02;;;;;;;2.58;0.60;;;19.60;99.90;;;;;;6338769;22;20447;-96
2021/08/16 08:08:29;;;;;;;0.30;0.30;;;19.60;99.90;;;;;;6339972;22;20404;-95
2021/08/16 08:10:57;;;;;;;1.80;1.35;;;19.70;99.90;;;;;;6340306;22;20383;-96
2021/08/16 08:13:25;;;;;;;2.10;1.33;;;19.90;99.90;;;;;;6338983;22;20387;-95
2021/08/16 08:15:53;;;;;;;1.25;1.15;;;20.00;99.90;;;;;;6340949;22;20382;-96
2021/08/16 08:18:20;;;;;;;0.77;0.65;;;20.10;99.90;;;;;;6339713;22;20380;-96
2021/08/16 08:20:47;;;;;;;1.80;1.30;;;20.10;99.90;;;;;;6340190;22;20869;-96
2021/08/16 08:23:14;;;;;;;0.20;0.20;;;20.10;99.90;;;;;;6339137;22;20450;-95
2021/08/16 08:25:43;;;;;;;0.20;0.20;;;20.10;99.90;;;;;;6339149;22;20496;-96
2021/08/16 08:28:15;;;;;;;2.40;1.10;;;20.00;99.90;;;;;;6338979;22;20384;-94
2021/08/16 08:30:43;;;;;;;1.02;0.93;;;19.90;99.90;;;;;;6341235;22;20388;-96
2021/08/16 08:33:11;;;;;;;2.70;1.80;;;19.90;99.90;;;;;;6337837;22;20383;-95
2021/08/16 08:35:39;;;;;;;0.50;0.50;;;19.90;99.90;;;;;;6339101;22;20468;-96
2021/08/16 08:38:12;;;;;;;0.60;0.50;;;19.90;99.90;;;;;;6338733;22;20407;-96
2021/08/16 08:40:40;;;;;;;1.20;1.10;;;19.80;99.90;;;;;;6338700;22;20376;-94
2021/08/16 08:43:12;;;;;;;0.10;0.10;;;19.90;99.90;;;;;;6338162;22;20385;-96
2021/08/16 08:45:41;;;;;;;1.83;1.42;;;20.10;99.90;;;;;;6339117;22;20380;-96
2021/08/16 08:48:09;;;;;;;0.80;0.80;;;20.20;99.90;;;;;;6338547;22;20381;-95
2021/08/16 08:50:39;;;;;;;1.60;0.80;;;20.30;99.90;;;;;;6338269;22;20655;-95
2021/08/16 08:53:06;;;;;;;0.95;0.73;;;20.50;99.90;;;;;;6337974;22;20395;-96
2021/08/16 08:55:33;;;;;;;0.30;0.30;;;20.60;99.90;;;;;;6338149;22;20396;-96
2021/08/16 08:58:14;;;;;;;0.40;0.40;;;20.60;99.90;;;;;;6337696;22;20393;-96
2021/08/16 09:00:41;;;;;;;2.33;1.50;;;20.80;99.90;;;;;;6338164;22;20456;-95
2021/08/16 09:03:10;;;;;;;1.50;0.90;;;20.80;99.90;;;;;;6337791;22;20935;-96
2021/08/16 09:05:49;;;;;;;1.53;0.73;;;20.90;99.90;;;;;;6337929;22;20467;-95
2021/08/16 09:08:31;;;;;;;0.57;0.57;;;20.90;99.90;;;;;;6338239;22;20460;-96
2021/08/16 09:11:14;;;;;;;2.33;1.15;;;21.00;99.90;;;;;;6338072;22;20480;-96
2021/08/16 09:14:12;;;;;;;1.15;0.90;;;21.30;99.90;;;;;;6360803;22;20384;-96
2021/08/16 09:16:40;;;;;;;0.22;0.22;;;21.30;99.90;;;;;;6203838;23;20392;-96
2021/08/16 09:19:23;;;;;;;1.00;0.90;;;21.30;99.90;;;;;;6189363;23;20737;-96
2021/08/16 09:22:00;;;;;;;1.50;1.00;;;21.20;99.90;;;;;;6189530;23;20413;-96
2021/08/16 09:24:31;;;;;;;0.52;0.45;;;21.10;99.90;;;;;;6189176;23;20801;-95
2021/08/16 09:27:03;;;;;;;0.10;0.10;;;21.00;99.90;;;;;;6189216;23;20387;-96
2021/08/16 09:32:03;;;;;;;1.23;0.73;;;21.10;99.90;;;;;;6276845;22;20380;-95
2021/08/16 09:34:32;;;;;;;1.10;1.00;;;21.40;99.90;;;;;;6250077;22;20384;-96
2021/08/16 09:37:02;;;;;;;1.55;1.10;;;21.70;99.90;;;;;;6275853;22;20432;-96
2021/08/16 09:39:33;;;;;;;0.47;0.47;;;21.90;99.90;;;;;;6276925;22;20380;-94
2021/08/16 09:42:04;;;;;;;2.30;1.08;;;22.10;99.90;;;;;;6275925;22;20408;-94
2021/08/16 09:44:31;;;;;;;1.10;1.00;;;22.10;99.90;;;;;;6275471;22;20487;-95
2021/08/16 09:47:06;;;;;;;1.10;0.80;;;22.00;99.90;;;;;;6276235;22;20410;-94
2021/08/16 09:49:33;;;;;;;2.00;1.30;;;22.10;99.90;;;;;;6276028;22;20384;-96
2021/08/16 09:52:13;;;;;;;2.40;1.17;;;22.10;99.90;;;;;;6276059;22;20467;-94
2021/08/16 09:54:41;;;;;;;0.60;0.60;;;22.10;99.90;;;;;;6276340;22;20698;-96
2021/08/16 09:57:10;;;;;;;0.40;0.40;;;22.10;99.90;;;;;;6275635;22;20400;-95
2021/08/16 09:59:38;;;;;;;1.58;1.02;;;22.10;99.90;;;;;;6275665;22;20384;-96
2021/08/16 10:02:06;;;;;;;0.47;0.47;;;22.30;99.90;;;;;;6275511;22;20392;-95
2021/08/16 10:04:33;;;;;;;1.42;0.70;;;22.60;99.90;;;;;;6275342;22;20389;-96
2021/08/16 10:07:04;;;;;;;0.35;0.35;;;23.00;99.90;;;;;;6274701;22;20411;-96
2021/08/16 10:09:48;;;;;;;0.40;0.40;;;23.00;99.90;;;;;;6276204;22;20430;-95
2021/08/16 10:12:16;;;;;;;0.60;0.60;;;22.80;99.90;;;;;;6275850;22;20384;-95
2021/08/16 10:14:46;;;;;;;1.30;0.60;;;22.30;99.90;;;;;;6275278;22;20380;-96
2021/08/16 10:17:34;;;;;;;0.60;0.60;;;21.90;99.90;;;;;;6275238;22;20454;-95
2021/08/16 10:20:03;;;;;;;3.10;1.30;;;21.70;99.90;;;;;;6275689;22;20387;-95
2021/08/16 10:22:37;;;;;;;1.02;0.93;;;21.50;99.90;;;;;;6275995;22;20408;-95
2021/08/16 10:25:17;;;;;;;5.97;0.70;;;21.30;99.90;;;;;;6275424;22;20498;-95
2021/08/16 10:27:46;;;;;;;0.80;0.32;;;21.30;99.90;;;;;;6250520;22;20411;-94
2021/08/16 10:30:18;;;;;;;1.63;1.08;;;21.40;99.90;;;;;;6286221;22;20772;-96
2021/08/16 10:32:45;;;;;;;1.98;1.40;;;21.50;99.90;;;;;;6281345;22;20390;-96
2021/08/16 10:35:19;;;;;;;0.80;0.57;;;21.40;99.90;;;;;;6281577;22;20708;-95
2021/08/16 10:37:47;;;;;;;1.08;0.68;;;21.50;99.90;;;;;;6283596;22;20477;-96
2021/08/16 10:40:25;;;;;;;1.88;1.20;;;21.70;99.90;;;;;;6283840;22;20909;-96
2021/08/16 10:42:55;;;;;;;3.90;0.60;;;21.60;99.90;;;;;;6281990;22;20473;-96
2021/08/16 10:45:31;;;;;;;1.90;1.00;;;21.70;99.90;;;;;;6283169;22;20449;-96
2021/08/16 10:48:06;;;;;;;1.50;0.73;;;21.90;99.90;;;;;;6283272;22;20386;-95
2021/08/16 10:50:35;;;;;;;0.50;0.50;;;22.20;99.90;;;;;;6275403;22;20379;-96
2021/08/16 10:53:05;;;;;;;1.00;0.73;;;22.20;99.90;;;;;;6291048;22;20385;-95
2021/08/16 10:55:35;;;;;;;1.88;0.70;;;22.10;99.90;;;;;;6308452;22;20358;-95
2021/08/16 10:58:07;;;;;;;0.98;0.90;;;22.00;99.90;;;;;;6288209;22;20402;-95
2021/08/16 11:00:35;;;;;;;0.38;0.38;;;22.20;99.90;;;;;;6283617;22;20386;-96
2021/08/16 11:03:03;;;;;;;1.25;0.63;;;22.30;99.90;;;;;;6282108;22;20382;-94
2021/08/16 11:05:36;;;;;;;1.35;0.75;;;22.40;99.90;;;;;;6283174;22;20458;-95
2021/08/16 11:08:05;;;;;;;0.40;0.40;;;22.20;99.90;;;;;;6282537;22;20450;-95
2021/08/16 11:10:41;;;;;;;3.35;1.25;;;22.00;99.90;;;;;;6283123;22;20661;-95
2021/08/16 11:13:16;;;;;;;0.70;0.50;;;22.00;99.90;;;;;;6281608;22;20465;-96
2021/08/16 11:15:46;;;;;;;0.53;0.53;;;22.10;99.90;;;;;;6308798;22;20469;-95
2021/08/16 11:18:16;;;;;;;0.70;0.70;;;22.20;99.90;;;;;;6282018;22;20402;-93
2021/08/16 11:20:45;;;;;;;0.43;0.43;;;22.20;99.90;;;;;;6281981;22;20389;-95
2021/08/16 11:23:19;;;;;;;0.77;0.77;;;22.10;99.90;;;;;;6282059;22;20391;-95
2021/08/16 11:25:51;;;;;;;3.10;1.40;;;22.10;99.90;;;;;;6283064;22;20399;-94
2021/08/16 11:28:23;;;;;;;1.92;1.13;;;22.10;99.90;;;;;;6281528;22;20386;-95
2021/08/16 11:31:00;;;;;;;1.00;0.90;;;22.10;99.90;;;;;;6282020;22;20477;-95
2021/08/16 11:33:27;;;;;;;0.30;0.30;;;21.90;99.90;;;;;;6281986;22;20402;-95
2021/08/16 11:36:03;;;;;;;0.28;0.28;;;21.80;99.90;;;;;;6282384;22;20382;-96
2021/08/16 11:38:31;;;;;;;25.55;12.15;;;21.60;99.90;;;;;;6282347;22;20426;-96
2021/08/16 11:41:11;;;;;;;23.13;12.63;;;21.40;99.90;;;;;;6281794;22;20385;-95
2021/08/16 11:44:16;;;;;;;22.97;12.77;;;21.20;99.90;;;;;;6285852;22;20378;-96
2021/08/16 11:46:44;;;;;;;21.55;12.07;;;21.10;99.90;;;;;;6271355;22;20389;-96
2021/08/16 11:49:13;;;;;;;24.10;12.57;;;21.00;99.90;;;;;;6281922;22;20385;-95
2021/08/16 11:51:45;;;;;;;21.13;12.10;;;21.00;99.90;;;;;;6281553;22;20379;-95
2021/08/16 11:54:26;;;;;;;20.75;12.23;;;20.90;99.90;;;;;;6281922;22;20867;-96
2021/08/16 11:56:59;;;;;;;22.20;12.68;;;20.90;99.90;;;;;;6281810;22;20386;-95
2021/08/16 11:59:26;;;;;;;25.95;12.10;;;20.90;99.90;;;;;;6281445;22;20386;-95
2021/08/16 12:02:06;;;;;;;22.75;11.50;;;20.90;99.90;;;;;;6282112;22;20504;-95
2021/08/16 12:04:39;;;;;;;22.75;13.48;;;20.80;99.90;;;;;;6281785;22;20390;-94
2021/08/16 12:07:06;;;;;;;22.02;13.75;;;20.60;99.90;;;;;;6281509;22;20414;-95
2021/08/16 12:09:35;;;;;;;22.98;13.18;;;20.50;99.90;;;;;;6281501;22;20418;-95
2021/08/16 12:12:05;;;;;;;22.08;13.65;;;20.40;99.90;;;;;;6282385;22;20406;-96
2021/08/16 12:14:34;;;;;;;24.50;13.43;;;20.40;99.90;;;;;;6281340;22;20382;-95
2021/08/16 12:17:02;;;;;;;22.67;13.55;;;20.50;99.90;;;;;;6281757;22;20951;-96
2021/08/16 12:19:30;;;;;;;24.33;14.10;;;20.60;99.90;;;;;;6281814;22;20382;-96
2021/08/16 12:22:09;;;;;;;19.95;13.00;;;20.70;99.90;;;;;;6281505;22;20417;-95
2021/08/16 12:24:39;;;;;;;22.83;13.60;;;20.80;99.90;;;;;;6281654;22;20389;-96
2021/08/16 12:27:08;;;;;;;21.25;12.68;;;20.80;99.90;;;;;;6282506;22;20665;-96
2021/08/16 12:29:45;;;;;;;25.45;13.30;;;20.70;99.90;;;;;;6281031;22;20414;-96
2021/08/16 12:32:21;;;;;;;19.85;12.57;;;20.80;99.90;;;;;;6281931;22;20382;-96
2021/08/16 12:34:50;;;;;;;26.58;13.68;;;21.00;99.90;;;;;;6302959;22;20405;-96
2021/08/16 12:37:33;;;;;;;22.00;12.40;;;21.10;99.90;;;;;;6298717;22;20391;-96
2021/08/16 12:40:12;;;;;;;30.85;12.75;;;21.10;99.90;;;;;;6280905;22;20780;-96
2021/08/16 12:42:44;;;;;;;23.00;13.35;;;20.90;99.90;;;;;;6281444;22;20379;-95
2021/08/16 12:45:13;;;;;;;27.08;14.38;;;20.60;99.90;;;;;;6281936;22;20386;-96
2021/08/16 12:47:41;;;;;;;26.95;15.27;;;20.40;99.90;;;;;;6282266;22;20383;-95
2021/08/16 12:50:10;;;;;;;7.40;3.50;;;20.10;99.90;;;;;;6282606;22;20469;-96
2021/08/16 12:52:39;;;;;;;5.30;2.00;;;19.70;99.90;;;;;;6306533;22;20454;-96
2021/08/16 12:55:20;;;;;;;6.75;2.55;;;19.00;99.90;;;;;;6354415;22;20374;-96
2021/08/16 12:57:47;;;;;;;7.28;2.80;;;18.40;99.90;;;;;;6350338;22;20395;-96